WetterOnline ( https://www.wetteronline.de )

Wetter aktuell Wüstenrot

Aktuelles Wetter: Kaisersbach-Cronhütte (489m)

6-stündlich | Neueste Meldungen
Ortszeit Temperatur Wetter
Fr, 06.12. 19:00 6.1° C bedeckt
Fr, 06.12. 13:00 6.9° C leicht bewölkt
Fr, 06.12. 7:00 -7.1° C wolkenlos
Fr, 06.12. 1:00 -5.5° C wolkenlos
Do, 05.12. 19:00 -3.2° C wolkenlos
Do, 05.12. 13:00 3.8° C wolkenlos
Do, 05.12. 7:00 -6.0° C wolkenlos
Do, 05.12. 1:00 -4.2° C wolkig
Ortszeit Temperatur Wetter
Fr, 06.12. 21:00 6.4° C bedeckt
Fr, 06.12. 20:40 6.3° C bedeckt
Fr, 06.12. 20:30 6.3° C bedeckt
Fr, 06.12. 20:20 6.3° C bedeckt
Fr, 06.12. 20:10 6.1° C bedeckt
Fr, 06.12. 20:00 6.3° C bedeckt
Fr, 06.12. 19:50 6.3° C bedeckt
Fr, 06.12. 19:30 6.4° C bedeckt
Fr, 06.12. 19:00 6.1° C bedeckt
Ortszeit Relative Feuchte Sichtweite
Fr, 06.12. 19:00 66% 45 km
Fr, 06.12. 13:00 46% 30 km
Fr, 06.12. 7:00 93% 8 km
Fr, 06.12. 1:00 96% 4.1 km
Do, 05.12. 19:00 94% 6 km
Do, 05.12. 13:00 62% 11 km
Do, 05.12. 7:00 95% 2.9 km
Do, 05.12. 1:00 94% 4.5 km
Ortszeit Relative Feuchte Sichtweite
Fr, 06.12. 21:00 62% 65 km
Fr, 06.12. 20:40 64% -
Fr, 06.12. 20:30 64% 40 km
Fr, 06.12. 20:20 64% -
Fr, 06.12. 20:10 64% -
Fr, 06.12. 20:00 64% 45 km
Fr, 06.12. 19:50 64% -
Fr, 06.12. 19:30 65% 45 km
Fr, 06.12. 19:00 66% 45 km
Ortszeit Niederschlagsmenge Niederschlagsart
Fr, 06.12. 19:00 0.0 l/m2 in 12 Std. -
Fr, 06.12. 13:00 0.0 l/m2 in 6 Std. -
Fr, 06.12. 7:00 0.0 l/m2 in 12 Std. -
Fr, 06.12. 1:00 0.0 l/m2 in 6 Std. -
Do, 05.12. 19:00 0.0 l/m2 in 12 Std. -
Do, 05.12. 13:00 0.0 l/m2 in 6 Std. -
Do, 05.12. 7:00 0.0 l/m2 in 12 Std. -
Do, 05.12. 1:00 0.0 l/m2 in 6 Std. -
Ortszeit Niederschlagsmenge Niederschlagsart
Fr, 06.12. 21:00 0.0 l/m2 in 1 Std. -
Fr, 06.12. 20:40 keine Meldung -
Fr, 06.12. 20:30 0.0 l/m2 in 1 Std. -
Fr, 06.12. 20:20 keine Meldung -
Fr, 06.12. 20:10 keine Meldung -
Fr, 06.12. 20:00 0.0 l/m2 in 1 Std. -
Fr, 06.12. 19:50 keine Meldung -
Fr, 06.12. 19:30 0.0 l/m2 in 1 Std. -
Fr, 06.12. 19:00 0.0 l/m2 in 1 Std. -
Ortszeit Stärke Spitze Richtung
km/h Bft. km/h Grad Sektor
Fr, 06.12. 19:00 11 2 18 210° SW
Fr, 06.12. 13:00 7 2 18 210° SW
Fr, 06.12. 7:00 0 0 4 - -
Fr, 06.12. 1:00 0 0 4 - -
Do, 05.12. 19:00 2 1 11 360° N
Do, 05.12. 13:00 4 1 11 230° SW
Do, 05.12. 7:00 4 1 4 280° W
Do, 05.12. 1:00 4 1 14 280° W
Ortszeit Stärke Spitze Richtung
km/h Bft. km/h Grad Sektor
Fr, 06.12. 21:00 11 2 22 220° SW
Fr, 06.12. 20:40 11 2 - 220° SW
Fr, 06.12. 20:30 11 2 22 220° SW
Fr, 06.12. 20:20 11 2 - 220° SW
Fr, 06.12. 20:10 11 2 - 220° SW
Fr, 06.12. 20:00 11 2 25 210° SW
Fr, 06.12. 19:50 11 2 - 210° SW
Fr, 06.12. 19:30 13 3 22 210° SW
Fr, 06.12. 19:00 11 2 18 210° SW
Ortszeit Untergrenze Bedeckung Gattung
total tief tief mittel hoch
Fr, 06.12. 19:00 5700 m 8/8 8/8 - - -
Fr, 06.12. 13:00 8700 m 8/8 0/8 - - -
Fr, 06.12. 7:00 - 0/8 0/8 - - -
Fr, 06.12. 1:00 - 0/8 0/8 - - -
Do, 05.12. 19:00 - 0/8 0/8 - - -
Do, 05.12. 13:00 - 0/8 0/8 - - -
Do, 05.12. 7:00 - 0/8 0/8 - - -
Do, 05.12. 1:00 10500 m 8/8 0/8 - - -
Ortszeit Bedeckungsgrad in Achtel und Wolkenuntergrenze
Fr, 06.12. 21:00 6(3300m) 8(4500m) 8(7200m)
Fr, 06.12. 20:40 2(3000m) 8(4200m) 8(6900m)
Fr, 06.12. 20:30 8(4200m) 8(6000m) 8(6600m)
Fr, 06.12. 20:20 8(4200m) 8(6000m) 8(6600m)
Fr, 06.12. 20:10 3(3900m) 8(4500m) 8(6300m)
Fr, 06.12. 20:00 8(4800m) 8(6300m)
Fr, 06.12. 19:50 8(4800m) 8(6300m)
Fr, 06.12. 19:30 6(5100m) 8(5400m) 8(7500m)
Fr, 06.12. 19:00 8(5700m) 8(7200m)
Ortszeit Luftdruck NN (hPa) Tendenz (hPa in 3 Std.)
Fr, 06.12. 19:00 1016 - 0,8
Fr, 06.12. 13:00 1018 - 1,6
Fr, 06.12. 7:00 1023 - 0,8
Fr, 06.12. 1:00 1024 - 0,7
Do, 05.12. 19:00 1025 + 0,5
Do, 05.12. 13:00 1023 - 0,3
Do, 05.12. 7:00 1025 + 0,7
Do, 05.12. 1:00 1023 - 0,7
Ortszeit Luftdruck NN (hPa) Tendenz (hPa in 3 Std.)
Fr, 06.12. 21:00 1015 - 0,6
Fr, 06.12. 20:40 1015 keine Meldung
Fr, 06.12. 20:30 1015 - 0,6
Fr, 06.12. 20:20 1015 keine Meldung
Fr, 06.12. 20:10 1016 keine Meldung
Fr, 06.12. 20:00 1015 - 0,6
Fr, 06.12. 19:50 1015 keine Meldung
Fr, 06.12. 19:30 1016 - 0,6
Fr, 06.12. 19:00 1016 - 0,8
Ortszeit Schneehöhe (cm)
Fr, 06.12. 19:00 0
Fr, 06.12. 13:00 0
Fr, 06.12. 7:00 0
Fr, 06.12. 1:00 0
Do, 05.12. 19:00 0
Do, 05.12. 13:00 0
Do, 05.12. 7:00 0
Do, 05.12. 1:00 0
Ortszeit Schneehöhe (cm)
Fr, 06.12. 21:00 0
Fr, 06.12. 20:40 0
Fr, 06.12. 20:30 0
Fr, 06.12. 20:20 0
Fr, 06.12. 20:10 0
Fr, 06.12. 20:00 0
Fr, 06.12. 19:50 0
Fr, 06.12. 19:30 0
Fr, 06.12. 19:00 0
Link zu dieser Seite / Seite empfehlen

Das Wetter in ...